Time;durP1;ratioP1;P1;durP2;ratioP2;P2;SDS_P1;SDS_P2;PMS_P1;PMS_P2;Temp;Humidity;BMP_temperature;BMP_pressure;BME280_temperature;BME280_humidity;BME280_pressure;Samples;Min_cycle;Max_cycle;Signal;HPM_P1;HPM_P2
2021/05/21 00:02:21;;;;;;;4.68;0.77;;;;;;;13.32;56.98;100516.84;5041896;28;20053;-66
2021/05/21 00:04:47;;;;;;;3.38;0.85;;;;;;;13.32;57.17;100506.41;5044764;28;20079;-66
2021/05/21 00:07:13;;;;;;;4.20;1.08;;;;;;;13.38;57.19;100500.94;5041782;28;20055;-66
2021/05/21 00:09:39;;;;;;;2.75;0.98;;;;;;;13.34;57.55;100491.50;5043652;28;20522;-66
2021/05/21 00:12:06;;;;;;;2.25;0.80;;;;;;;13.36;57.82;100489.69;5048093;28;20190;-66
2021/05/21 00:14:32;;;;;;;4.50;0.90;;;;;;;13.35;57.79;100484.53;5044236;28;20051;-66
2021/05/21 00:16:58;;;;;;;2.05;0.60;;;;;;;13.38;57.75;100487.88;5041593;28;20099;-66
2021/05/21 00:19:24;;;;;;;6.75;0.93;;;;;;;13.44;57.65;100475.53;5042256;28;20131;-66
2021/05/21 00:21:50;;;;;;;3.63;0.70;;;;;;;13.51;57.73;100477.03;5042869;28;20069;-66
2021/05/21 00:24:16;;;;;;;2.28;0.70;;;;;;;13.43;57.65;100479.03;5047341;28;20071;-66
2021/05/21 00:26:42;;;;;;;3.28;0.70;;;;;;;13.41;58.13;100475.66;5042532;28;20060;-66
2021/05/21 00:29:08;;;;;;;5.53;0.90;;;;;;;13.37;58.08;100465.28;5044391;28;20053;-66
2021/05/21 00:31:34;;;;;;;3.40;0.70;;;;;;;13.33;58.72;100465.44;5048417;28;20052;-66
2021/05/21 00:34:00;;;;;;;4.20;0.82;;;;;;;13.35;58.68;100459.25;5049185;28;20045;-66
2021/05/21 00:36:26;;;;;;;5.20;0.73;;;;;;;13.36;58.54;100453.13;5041979;28;20106;-66
2021/05/21 00:38:52;;;;;;;5.15;0.90;;;;;;;13.36;58.62;100444.44;5043644;28;20127;-66
2021/05/21 00:41:21;;;;;;;3.05;0.60;;;;;;;13.35;58.90;100442.72;5046309;28;20050;-66
2021/05/21 00:43:47;;;;;;;3.40;0.60;;;;;;;13.31;58.97;100447.22;5047726;28;20470;-66
2021/05/21 00:46:13;;;;;;;1.88;0.50;;;;;;;13.33;58.83;100437.53;5045825;28;20103;-66
2021/05/21 00:48:39;;;;;;;5.75;0.98;;;;;;;13.26;59.52;100435.22;5046437;28;20077;-66
2021/05/21 00:51:05;;;;;;;3.15;0.60;;;;;;;13.26;59.51;100423.00;5044802;28;20053;-66
2021/05/21 00:53:32;;;;;;;5.28;1.25;;;;;;;13.27;59.82;100436.94;5044002;28;20091;-66
2021/05/21 00:55:58;;;;;;;2.38;0.57;;;;;;;13.23;59.60;100420.50;5044860;28;20045;-66
2021/05/21 00:58:24;;;;;;;2.85;0.55;;;;;;;13.27;59.50;100418.66;5044342;28;20037;-64
2021/05/21 01:00:52;;;;;;;2.72;0.70;;;;;;;13.22;59.60;100403.13;5046434;28;20045;-66
2021/05/21 01:03:18;;;;;;;4.93;0.95;;;;;;;13.19;60.16;100404.06;5040117;28;20049;-66
2021/05/21 01:05:44;;;;;;;2.65;0.50;;;;;;;13.18;60.17;100401.53;5048842;28;20049;-66
2021/05/21 01:08:10;;;;;;;3.47;0.80;;;;;;;13.24;59.88;100409.13;5046109;28;20092;-66
2021/05/21 01:10:36;;;;;;;3.25;0.82;;;;;;;13.32;59.81;100407.13;5038377;28;20042;-65
2021/05/21 01:13:03;;;;;;;2.17;0.60;;;;;;;13.30;59.81;100401.09;5037569;28;20048;-66
2021/05/21 01:15:29;;;;;;;4.20;0.85;;;;;;;13.38;59.83;100406.91;5044898;28;20053;-66
2021/05/21 01:17:55;;;;;;;3.05;0.70;;;;;;;13.36;59.76;100395.66;5049100;28;20095;-66
2021/05/21 01:20:22;;;;;;;4.95;0.98;;;;;;;13.41;59.89;100384.22;5044967;28;20045;-66
2021/05/21 01:22:48;;;;;;;3.63;0.95;;;;;;;13.34;59.89;100383.56;5040406;28;20046;-65
2021/05/21 01:25:14;;;;;;;3.33;0.85;;;;;;;13.40;59.97;100372.91;5041369;28;20098;-65
2021/05/21 01:27:40;;;;;;;4.05;1.02;;;;;;;13.45;59.87;100364.88;5040560;28;20069;-66
2021/05/21 01:30:08;;;;;;;15.50;1.88;;;;;;;13.39;59.78;100363.34;5048044;28;20072;-66
2021/05/21 01:32:34;;;;;;;5.00;1.38;;;;;;;13.36;59.86;100361.69;5046656;28;20045;-65
2021/05/21 01:35:00;;;;;;;3.78;0.90;;;;;;;13.35;60.05;100349.53;5042122;28;20132;-65
2021/05/21 01:37:26;;;;;;;7.35;0.73;;;;;;;13.31;60.49;100363.63;5044828;28;20510;-66
2021/05/21 01:39:53;;;;;;;6.07;1.25;;;;;;;13.32;60.24;100359.25;5043790;28;20052;-66
2021/05/21 01:42:20;;;;;;;3.80;0.70;;;;;;;13.37;59.87;100354.72;5041188;28;20301;-65
2021/05/21 01:44:46;;;;;;;2.80;0.70;;;;;;;13.34;59.85;100360.88;5050628;28;20045;-65
2021/05/21 01:47:13;;;;;;;6.13;1.17;;;;;;;13.36;60.05;100358.22;5047111;28;20053;-66
2021/05/21 01:49:39;;;;;;;2.20;0.60;;;;;;;13.29;60.53;100347.16;5051553;28;20118;-66
2021/05/21 01:52:06;;;;;;;4.07;0.80;;;;;;;13.27;60.76;100346.34;5049196;28;20741;-65
2021/05/21 01:54:32;;;;;;;2.08;0.70;;;;;;;13.30;60.33;100341.03;5049074;28;20053;-66
2021/05/21 01:57:01;;;;;;;3.72;0.73;;;;;;;13.29;60.80;100336.72;5047514;28;20110;-64
2021/05/21 01:59:27;;;;;;;3.85;1.00;;;;;;;13.32;60.62;100334.00;5050199;28;20072;-66
2021/05/21 02:01:54;;;;;;;2.83;0.63;;;;;;;13.37;60.18;100326.81;5043351;28;20461;-66
2021/05/21 02:04:28;;;;;;;2.63;0.88;;;;;;;13.31;60.80;100323.56;5047828;28;20063;-66
2021/05/21 02:06:54;;;;;;;4.53;0.60;;;;;;;13.31;60.57;100316.59;5047159;28;20045;-66
2021/05/21 02:09:20;;;;;;;4.28;0.70;;;;;;;13.33;60.74;100316.53;5043766;28;20066;-66
2021/05/21 02:11:46;;;;;;;1.33;0.50;;;;;;;13.33;60.34;100306.09;5045487;28;20069;-66
2021/05/21 02:14:13;;;;;;;3.85;1.00;;;;;;;13.24;60.73;100309.88;5048083;28;20094;-66
2021/05/21 02:16:39;;;;;;;4.97;0.70;;;;;;;13.27;60.83;100304.56;5051229;28;20056;-66
2021/05/21 02:19:05;;;;;;;2.53;0.70;;;;;;;13.36;60.56;100298.16;5052403;28;20114;-66
2021/05/21 02:21:32;;;;;;;7.70;0.80;;;;;;;13.24;60.70;100296.84;5049020;28;20056;-66
2021/05/21 02:23:59;;;;;;;2.72;0.88;;;;;;;13.21;60.99;100289.97;5048086;28;20059;-66
2021/05/21 02:26:25;;;;;;;3.25;1.15;;;;;;;13.16;61.09;100299.75;5044657;28;20049;-66
2021/05/21 02:28:51;;;;;;;3.55;0.70;;;;;;;13.17;61.29;100295.38;5044351;28;20052;-66
2021/05/21 02:31:18;;;;;;;3.55;0.82;;;;;;;13.09;61.00;100279.97;5046972;28;20044;-66
2021/05/21 02:33:44;;;;;;;6.07;1.00;;;;;;;13.09;61.38;100287.81;5046691;28;20499;-66
2021/05/21 02:36:10;;;;;;;4.90;1.10;;;;;;;13.10;61.15;100279.06;5045468;28;20056;-66
2021/05/21 02:38:36;;;;;;;3.67;1.02;;;;;;;13.02;61.14;100268.94;5048888;28;20426;-65
2021/05/21 02:41:02;;;;;;;3.45;0.82;;;;;;;13.07;61.02;100269.59;5048152;28;20052;-66
2021/05/21 02:43:29;;;;;;;5.00;0.88;;;;;;;12.94;61.62;100264.88;5051152;28;20498;-66
2021/05/21 02:45:54;;;;;;;3.90;0.80;;;;;;;12.93;61.45;100250.97;5051148;28;20045;-66
2021/05/21 02:48:21;;;;;;;3.03;0.98;;;;;;;12.88;61.81;100255.53;5045893;28;20045;-66
2021/05/21 02:50:47;;;;;;;5.10;1.20;;;;;;;12.89;61.72;100254.63;5036035;28;20050;-66
2021/05/21 02:53:13;;;;;;;3.05;1.05;;;;;;;12.81;61.83;100252.28;5038574;28;20131;-65
2021/05/21 02:55:39;;;;;;;2.22;0.68;;;;;;;12.86;61.78;100254.72;5046297;28;20077;-66
2021/05/21 02:58:05;;;;;;;8.40;1.38;;;;;;;12.69;62.20;100247.50;5049634;28;20052;-66
2021/05/21 03:00:31;;;;;;;3.45;0.80;;;;;;;12.78;62.32;100249.78;5047141;28;20136;-66
2021/05/21 03:02:57;;;;;;;6.03;0.75;;;;;;;12.72;62.05;100247.41;5046571;28;20461;-66
2021/05/21 03:05:25;;;;;;;5.35;0.90;;;;;;;12.82;61.37;100250.53;5041095;28;20052;-66
2021/05/21 03:07:53;;;;;;;2.40;0.80;;;;;;;12.80;61.68;100250.56;5045015;28;20049;-66
2021/05/21 03:10:18;;;;;;;3.08;0.60;;;;;;;12.70;61.91;100247.47;5047999;28;20110;-66
2021/05/21 03:12:44;;;;;;;4.35;0.80;;;;;;;12.72;61.85;100237.81;5041395;28;20493;-66
2021/05/21 03:15:12;;;;;;;6.10;1.20;;;;;;;12.72;61.85;100243.03;5044239;28;20497;-66
2021/05/21 03:17:37;;;;;;;1.88;0.65;;;;;;;12.70;62.27;100239.63;5039930;28;20049;-66
2021/05/21 03:20:05;;;;;;;1.63;0.60;;;;;;;12.62;62.45;100239.06;5046439;28;20055;-66
2021/05/21 03:22:31;;;;;;;4.28;1.30;;;;;;;12.63;62.51;100239.91;5043260;28;20045;-66
2021/05/21 03:25:01;;;;;;;9.32;1.10;;;;;;;12.60;62.69;100240.88;5050631;28;20072;-66
2021/05/21 03:27:27;;;;;;;4.85;1.08;;;;;;;12.60;62.71;100233.03;5046313;28;20083;-66
2021/05/21 03:29:53;;;;;;;4.47;1.15;;;;;;;12.57;62.74;100220.09;5049468;28;20045;-66
2021/05/21 03:32:19;;;;;;;5.22;1.00;;;;;;;12.59;62.55;100231.34;5043962;28;20087;-65
2021/05/21 03:34:45;;;;;;;3.00;1.05;;;;;;;12.59;62.86;100231.34;5041394;28;20045;-66
2021/05/21 03:37:11;;;;;;;5.00;0.90;;;;;;;12.57;62.72;100230.53;5040485;28;20049;-66
2021/05/21 03:39:38;;;;;;;3.67;0.73;;;;;;;12.64;62.64;100221.56;5043176;28;20526;-63
2021/05/21 03:42:05;;;;;;;2.85;0.90;;;;;;;12.60;62.79;100222.59;5038818;28;20045;-63
2021/05/21 03:44:31;;;;;;;5.47;1.10;;;;;;;12.63;62.94;100222.47;5047540;28;20583;-65
2021/05/21 03:46:57;;;;;;;2.88;0.90;;;;;;;12.68;63.03;100217.09;5043455;28;20045;-66
2021/05/21 03:49:24;;;;;;;2.13;0.90;;;;;;;12.71;62.66;100217.84;5045273;28;20045;-66
2021/05/21 03:51:50;;;;;;;3.92;0.90;;;;;;;12.67;62.90;100212.81;5045849;28;20044;-66
2021/05/21 03:54:16;;;;;;;4.28;0.70;;;;;;;12.71;62.63;100210.03;5044808;28;20091;-66
2021/05/21 03:56:42;;;;;;;2.80;0.77;;;;;;;12.87;62.48;100201.63;5039824;28;20076;-66
2021/05/21 03:59:08;;;;;;;4.10;0.90;;;;;;;12.83;62.09;100202.63;5041000;28;20049;-66
2021/05/21 04:01:35;;;;;;;4.60;0.90;;;;;;;12.90;61.77;100207.56;5042258;28;20067;-66
2021/05/21 04:04:01;;;;;;;6.53;0.90;;;;;;;12.85;62.32;100203.41;5041041;28;20049;-65
2021/05/21 04:06:27;;;;;;;4.05;0.80;;;;;;;12.85;62.25;100206.03;5044162;28;20068;-66
2021/05/21 04:08:53;;;;;;;10.90;1.00;;;;;;;12.82;62.30;100204.41;5041721;28;20411;-66
2021/05/21 04:11:19;;;;;;;4.00;0.75;;;;;;;12.84;62.36;100199.97;5037628;28;20140;-64
2021/05/21 04:13:46;;;;;;;2.95;0.98;;;;;;;12.93;61.88;100196.16;5043549;28;20444;-65
2021/05/21 04:16:13;;;;;;;3.25;1.08;;;;;;;12.88;62.16;100200.72;5042424;28;20186;-66
2021/05/21 04:18:39;;;;;;;5.13;0.90;;;;;;;12.87;62.18;100194.66;5043773;28;20083;-66
2021/05/21 04:21:05;;;;;;;7.97;1.02;;;;;;;12.95;62.13;100186.50;5042059;28;20406;-66
2021/05/21 04:23:31;;;;;;;4.43;0.77;;;;;;;12.96;62.11;100188.22;5041177;28;20045;-64
2021/05/21 04:25:58;;;;;;;4.18;0.70;;;;;;;13.01;62.03;100185.41;5044043;28;20049;-66
2021/05/21 04:28:23;;;;;;;6.10;1.10;;;;;;;12.99;62.22;100182.88;5045887;28;20055;-66
2021/05/21 04:30:52;;;;;;;9.25;1.05;;;;;;;13.01;62.21;100188.91;5044641;28;20053;-66
2021/05/21 04:33:18;;;;;;;5.85;0.70;;;;;;;13.09;61.86;100179.91;5042910;28;20493;-65
2021/05/21 04:35:44;;;;;;;5.20;1.27;;;;;;;13.21;61.75;100169.00;5037016;28;20060;-66
2021/05/21 04:38:10;;;;;;;4.63;1.00;;;;;;;13.19;61.75;100176.03;5045981;28;20159;-66
2021/05/21 04:40:36;;;;;;;5.38;0.88;;;;;;;13.05;62.11;100173.97;5039277;28;20046;-67
2021/05/21 04:43:01;;;;;;;4.03;0.93;;;;;;;13.06;62.29;100176.50;5039587;28;20095;-66
2021/05/21 04:45:27;;;;;;;9.32;2.13;;;;;;;13.07;62.07;100165.16;5038845;28;20103;-66
2021/05/21 04:47:54;;;;;;;5.00;0.95;;;;;;;13.12;62.28;100166.75;5044875;28;20458;-66
2021/05/21 04:50:21;;;;;;;2.92;0.75;;;;;;;13.21;62.11;100169.00;5041685;28;20075;-66
2021/05/21 04:52:48;;;;;;;4.18;0.80;;;;;;;13.20;62.20;100165.53;5039695;28;20049;-65
2021/05/21 04:55:14;;;;;;;4.63;0.73;;;;;;;13.22;61.98;100165.47;5046131;28;20049;-65
2021/05/21 04:57:40;;;;;;;4.15;0.90;;;;;;;13.30;61.84;100165.16;5042500;28;20041;-66
2021/05/21 05:00:07;;;;;;;2.80;0.63;;;;;;;13.35;61.98;100166.66;5041699;28;20060;-66
2021/05/21 05:02:33;;;;;;;3.85;1.00;;;;;;;13.29;61.96;100166.94;5045863;28;20102;-65
2021/05/21 05:05:00;;;;;;;4.72;0.90;;;;;;;13.29;62.23;100163.44;5042567;28;20049;-66
2021/05/21 05:07:26;;;;;;;3.58;1.00;;;;;;;13.29;62.10;100171.28;5044277;28;20060;-66
2021/05/21 05:09:52;;;;;;;4.85;0.90;;;;;;;13.33;61.80;100165.03;5041201;28;20049;-66
2021/05/21 05:12:18;;;;;;;3.97;0.82;;;;;;;13.29;62.43;100164.31;5044915;28;20045;-63
2021/05/21 05:14:44;;;;;;;4.60;0.95;;;;;;;13.30;62.09;100163.41;5049148;28;20422;-65
2021/05/21 05:17:10;;;;;;;4.70;1.05;;;;;;;13.38;61.77;100153.50;5045743;28;20049;-65
2021/05/21 05:19:36;;;;;;;2.38;0.70;;;;;;;13.29;62.27;100159.09;5045241;28;20052;-66
2021/05/21 05:22:03;;;;;;;3.72;0.80;;;;;;;13.31;62.16;100159.88;5048663;28;20049;-65
2021/05/21 05:24:33;;;;;;;6.28;1.05;;;;;;;13.40;61.64;100153.47;5042000;28;20049;-66
2021/05/21 05:26:59;;;;;;;4.47;1.45;;;;;;;13.37;61.47;100153.56;5045144;28;20064;-66
2021/05/21 05:29:25;;;;;;;5.97;1.30;;;;;;;13.49;61.30;100152.25;5045436;28;20059;-65
2021/05/21 05:31:53;;;;;;;5.22;1.00;;;;;;;13.45;61.86;100150.66;5045277;28;20400;-66
2021/05/21 05:34:18;;;;;;;3.30;0.80;;;;;;;13.51;61.39;100148.66;5047166;28;20053;-65
2021/05/21 05:36:44;;;;;;;4.70;1.10;;;;;;;13.65;61.48;100140.25;5045084;28;20421;-65
2021/05/21 05:39:11;;;;;;;3.63;1.05;;;;;;;13.82;60.55;100133.47;5044753;28;20064;-65
2021/05/21 05:41:37;;;;;;;6.05;0.90;;;;;;;13.96;60.82;100135.50;5046319;28;20043;-65
2021/05/21 05:44:04;;;;;;;7.03;1.50;;;;;;;14.15;60.34;100130.28;5046946;28;20060;-65
2021/05/21 05:46:30;;;;;;;2.97;0.90;;;;;;;14.21;59.38;100131.78;5047769;28;20431;-64
2021/05/21 05:48:56;;;;;;;5.82;1.02;;;;;;;14.18;59.50;100124.94;5045401;28;20045;-66
2021/05/21 05:51:22;;;;;;;4.85;1.10;;;;;;;14.27;59.17;100124.53;5047270;28;20041;-66
2021/05/21 05:53:48;;;;;;;6.45;1.02;;;;;;;14.27;59.97;100129.75;5060020;22;20067;-63
2021/05/21 05:56:15;;;;;;;3.88;1.08;;;;;;;14.34;59.43;100130.34;5050050;28;20053;-65
2021/05/21 05:58:41;;;;;;;5.53;1.40;;;;;;;14.45;59.61;100122.84;5049774;28;20049;-65
2021/05/21 06:01:07;;;;;;;6.85;1.58;;;;;;;14.61;58.75;100120.41;5051267;28;20505;-64
2021/05/21 06:03:33;;;;;;;3.65;0.98;;;;;;;14.67;58.50;100110.56;5058860;28;20052;-68
2021/05/21 06:05:59;;;;;;;8.43;1.70;;;;;;;14.70;58.37;100113.91;5050258;28;20060;-66
2021/05/21 06:08:25;;;;;;;7.43;1.38;;;;;;;14.72;58.67;100116.47;5049123;28;20107;-65
2021/05/21 06:10:52;;;;;;;4.82;1.23;;;;;;;14.66;58.66;100108.84;5055171;28;20456;-64
2021/05/21 06:13:22;;;;;;;12.48;1.25;;;;;;;14.54;59.14;100111.09;5058986;28;20526;-62
2021/05/21 06:15:48;;;;;;;7.38;1.60;;;;;;;14.40;59.37;100114.34;5048979;28;20482;-64
2021/05/21 06:18:14;;;;;;;5.75;0.98;;;;;;;14.49;58.99;100105.25;5060435;28;20059;-64
2021/05/21 06:20:40;;;;;;;7.13;1.40;;;;;;;14.43;59.18;100111.59;5059632;28;20047;-65
2021/05/21 06:23:06;;;;;;;8.70;1.30;;;;;;;14.32;60.03;100107.78;5062680;28;20037;-65
2021/05/21 06:25:51;;;;;;;5.60;1.48;;;;;;;14.51;59.88;100106.03;5055947;28;20052;-62
2021/05/21 06:28:22;;;;;;;9.05;1.65;;;;;;;14.54;59.06;100105.88;5055083;28;20056;-63
2021/05/21 06:30:48;;;;;;;4.72;1.52;;;;;;;14.67;58.87;100110.56;5047859;28;20053;-65
2021/05/21 06:33:14;;;;;;;9.57;1.40;;;;;;;14.58;59.13;100112.66;5054664;28;20110;-65
2021/05/21 06:35:40;;;;;;;6.95;1.60;;;;;;;14.40;59.81;100108.28;5052857;28;20090;-65
2021/05/21 06:38:06;;;;;;;6.82;1.55;;;;;;;14.29;60.00;100116.59;5060358;28;20052;-67
2021/05/21 06:40:32;;;;;;;5.53;1.40;;;;;;;14.44;58.94;100107.22;5056221;28;20041;-66
2021/05/21 06:42:58;;;;;;;9.15;2.28;;;;;;;14.45;58.82;100106.28;5063003;28;20040;-65
2021/05/21 06:45:26;;;;;;;12.63;1.35;;;;;;;14.50;59.01;100095.63;5058759;28;20094;-66
2021/05/21 06:47:52;;;;;;;4.85;1.20;;;;;;;14.53;59.32;100101.56;5052347;28;20052;-66
2021/05/21 06:50:18;;;;;;;8.23;1.30;;;;;;;14.76;58.59;100099.66;5059867;28;20052;-65
2021/05/21 06:52:44;;;;;;;8.60;1.23;;;;;;;14.90;57.64;100099.88;5055678;28;20049;-65
2021/05/21 06:55:12;;;;;;;11.23;1.77;;;;;;;15.04;57.97;100098.34;5054284;28;20062;-67
2021/05/21 06:57:41;;;;;;;6.20;1.38;;;;;;;15.34;56.45;100100.41;5050739;28;20041;-65
2021/05/21 07:00:08;;;;;;;5.32;1.20;;;;;;;15.76;56.61;100107.03;5051751;28;20063;-65
2021/05/21 07:02:35;;;;;;;5.88;1.52;;;;;;;16.13;54.36;100114.81;5050893;28;20049;-66
2021/05/21 07:05:01;;;;;;;7.95;1.40;;;;;;;16.49;54.55;100111.13;5050027;28;20048;-65
2021/05/21 07:07:30;;;;;;;7.45;2.10;;;;;;;16.74;52.73;100104.56;5057202;28;20045;-65
2021/05/21 07:09:56;;;;;;;5.60;1.38;;;;;;;16.65;52.79;100111.16;5050932;28;20045;-66
2021/05/21 07:12:22;;;;;;;9.27;1.63;;;;;;;16.59;53.25;100112.34;5052371;28;20416;-64
2021/05/21 07:14:48;;;;;;;6.70;1.65;;;;;;;16.53;53.06;100106.56;5058267;28;20113;-66
2021/05/21 07:17:14;;;;;;;8.27;2.33;;;;;;;16.58;52.68;100099.31;5056633;28;20056;-66
2021/05/21 07:19:41;;;;;;;7.68;1.77;;;;;;;16.46;51.26;100101.66;5059822;28;20132;-65
2021/05/21 07:22:07;;;;;;;7.82;1.67;;;;;;;16.58;50.29;100104.56;5059300;28;20052;-65
2021/05/21 07:24:33;;;;;;;10.00;1.90;;;;;;;16.67;49.74;100111.94;5060320;28;20056;-65
2021/05/21 07:26:59;;;;;;;11.02;2.55;;;;;;;16.51;51.02;100097.94;5057542;28;20049;-66
2021/05/21 07:29:25;;;;;;;8.13;1.80;;;;;;;16.57;49.92;100101.06;5045601;28;20061;-66
2021/05/21 07:31:51;;;;;;;9.30;1.80;;;;;;;16.68;49.45;100104.88;5051202;28;20083;-66
2021/05/21 07:34:20;;;;;;;11.90;2.38;;;;;;;16.68;49.82;100108.38;5055435;28;20089;-65
2021/05/21 07:36:46;;;;;;;9.90;2.05;;;;;;;16.58;49.73;100104.56;5051362;28;20049;-63
2021/05/21 07:39:14;;;;;;;13.00;3.10;;;;;;;16.57;50.30;100100.22;5056234;28;20643;-66
2021/05/21 07:41:40;;;;;;;10.15;2.38;;;;;;;16.43;50.40;100114.94;5054067;28;20136;-65
2021/05/21 07:44:07;;;;;;;9.30;1.80;;;;;;;16.27;50.35;100109.66;5059984;28;20506;-65
2021/05/21 07:46:33;;;;;;;12.15;2.00;;;;;;;16.08;50.74;100108.94;5050950;28;20565;-63
2021/05/21 07:49:00;;;;;;;12.75;2.03;;;;;;;15.86;51.94;100112.72;5050064;28;20461;-64
2021/05/21 07:51:26;;;;;;;14.40;2.25;;;;;;;15.53;50.93;100108.22;5058041;28;20040;-65
2021/05/21 07:53:54;;;;;;;14.07;2.97;;;;;;;15.12;52.24;100106.72;5055688;28;20048;-64
2021/05/21 07:56:20;;;;;;;13.20;2.35;;;;;;;15.10;51.97;100100.69;5052547;28;20049;-65
2021/05/21 07:58:46;;;;;;;9.85;2.00;;;;;;;15.08;51.82;100102.53;5055518;28;20048;-63
2021/05/21 08:01:12;;;;;;;9.32;2.15;;;;;;;15.16;52.34;100103.00;5049920;28;20280;-61
2021/05/21 08:03:38;;;;;;;10.05;1.83;;;;;;;15.35;52.54;100105.59;5049529;28;20091;-63
2021/05/21 08:06:04;;;;;;;18.05;3.45;;;;;;;15.73;49.57;100106.34;5050571;28;20045;-64
2021/05/21 08:08:32;;;;;;;14.70;2.75;;;;;;;15.61;48.38;100100.81;5050296;28;20048;-64
2021/05/21 08:11:01;;;;;;;13.48;2.30;;;;;;;15.36;50.56;100095.94;5041212;28;20502;-64
2021/05/21 08:13:27;;;;;;;13.98;2.60;;;;;;;15.68;49.03;100099.56;5045227;28;20053;-67
2021/05/21 08:15:53;;;;;;;18.40;2.28;;;;;;;15.73;49.47;100094.06;5056794;28;20040;-65
2021/05/21 08:18:19;;;;;;;10.80;2.03;;;;;;;15.76;46.96;100095.72;5056538;28;20507;-64
2021/05/21 08:20:47;;;;;;;12.20;2.38;;;;;;;15.58;47.90;100095.69;5051555;28;20068;-64
2021/05/21 08:23:14;;;;;;;10.55;2.40;;;;;;;15.51;48.13;100092.56;5052169;28;20040;-64
2021/05/21 08:25:40;;;;;;;13.52;2.30;;;;;;;15.64;48.42;100091.91;5044602;28;20061;-66
2021/05/21 08:28:07;;;;;;;15.05;2.67;;;;;;;15.66;48.51;100079.59;5041213;28;20099;-66
2021/05/21 08:30:33;;;;;;;10.60;2.10;;;;;;;16.00;47.85;100076.09;5052143;28;20060;-65
2021/05/21 08:32:59;;;;;;;11.43;1.95;;;;;;;16.31;46.99;100086.75;5046879;28;20159;-65
2021/05/21 08:35:25;;;;;;;10.73;2.45;;;;;;;16.61;47.01;100072.88;5058432;28;20052;-66
2021/05/21 08:37:52;;;;;;;12.57;2.55;;;;;;;17.01;44.36;100070.69;5053818;28;20093;-65
2021/05/21 08:40:22;;;;;;;17.95;2.50;;;;;;;17.16;46.18;100063.72;5056694;28;20045;-65
2021/05/21 08:42:57;;;;;;;10.50;2.28;;;;;;;17.29;45.35;100063.84;5050385;28;20132;-65
2021/05/21 08:45:24;;;;;;;10.43;2.00;;;;;;;17.19;45.09;100070.56;5057074;28;20048;-66
2021/05/21 08:47:50;;;;;;;11.23;2.35;;;;;;;16.99;44.02;100085.69;5055543;28;20362;-66
2021/05/21 08:50:16;;;;;;;18.95;3.63;;;;;;;16.44;44.80;100077.28;5053849;28;20063;-65
2021/05/21 08:52:42;;;;;;;17.15;2.60;;;;;;;16.30;44.11;100077.19;5057377;28;20091;-65
2021/05/21 08:55:10;;;;;;;12.30;2.28;;;;;;;16.07;46.89;100087.13;5055485;28;20649;-67
2021/05/21 08:57:36;;;;;;;14.55;2.33;;;;;;;16.20;47.59;100076.81;5059164;28;20048;-67
2021/05/21 09:00:04;;;;;;;10.90;2.10;;;;;;;16.28;42.68;100081.66;5054132;28;20052;-67
2021/05/21 09:02:33;;;;;;;9.70;2.45;;;;;;;16.31;44.04;100082.34;5052878;28;20111;-67
2021/05/21 09:05:01;;;;;;;14.98;2.45;;;;;;;16.67;43.69;100088.28;5056303;28;20044;-66
2021/05/21 09:07:28;;;;;;;14.13;2.33;;;;;;;16.84;43.08;100079.47;5048938;28;20041;-67
2021/05/21 09:09:55;;;;;;;9.82;2.25;;;;;;;16.88;41.74;100082.78;5048642;28;20106;-66
2021/05/21 09:12:23;;;;;;;18.00;3.83;;;;;;;16.98;42.76;100097.13;5053112;28;20109;-67
2021/05/21 09:15:09;;;;;;;13.70;2.20;;;;;;;16.99;41.30;100085.69;5056818;28;20059;-64
2021/05/21 09:17:36;;;;;;;10.13;2.22;;;;;;;16.86;43.15;100089.91;5057459;28;20044;-65
2021/05/21 09:20:04;;;;;;;8.27;2.08;;;;;;;16.96;41.53;100087.66;5060149;28;20053;-66
2021/05/21 09:22:29;;;;;;;10.10;2.03;;;;;;;16.64;41.82;100091.09;5060932;28;20087;-66
2021/05/21 09:24:56;;;;;;;11.05;2.40;;;;;;;16.73;43.14;100089.75;5050274;28;20041;-66
2021/05/21 09:27:22;;;;;;;12.82;2.42;;;;;;;16.91;41.81;100087.88;5057014;28;20052;-67
2021/05/21 09:29:49;;;;;;;11.65;2.15;;;;;;;17.35;42.34;100088.91;5054293;28;20075;-66
2021/05/21 09:32:27;;;;;;;15.18;2.38;;;;;;;17.58;39.88;100094.59;5057676;28;20040;-65
2021/05/21 09:35:03;;;;;;;14.88;2.80;;;;;;;17.74;41.23;100084.00;5045546;28;20533;-65
2021/05/21 09:37:29;;;;;;;14.43;2.85;;;;;;;17.93;39.95;100081.13;5055594;28;20075;-65
2021/05/21 09:40:17;;;;;;;12.60;2.20;;;;;;;18.08;38.57;100082.00;5048098;28;20049;-65
2021/05/21 09:42:49;;;;;;;11.25;2.22;;;;;;;17.72;39.22;100087.56;5046016;28;20052;-65
2021/05/21 09:45:24;;;;;;;10.75;2.78;;;;;;;17.68;38.63;100091.34;5047943;28;20098;-64
2021/05/21 09:47:52;;;;;;;15.05;3.63;;;;;;;17.29;39.82;100086.63;5051145;28;20057;-64
2021/05/21 09:50:20;;;;;;;10.93;2.30;;;;;;;17.17;39.63;100088.19;5060233;28;20102;-65
2021/05/21 09:52:47;;;;;;;13.18;2.30;;;;;;;16.74;40.75;100084.38;5055366;28;20578;-67
2021/05/21 09:55:13;;;;;;;7.80;2.03;;;;;;;16.91;38.50;100085.25;5054823;28;20087;-67
2021/05/21 09:57:40;;;;;;;12.68;2.35;;;;;;;17.02;40.28;100082.03;5064509;28;20067;-66
2021/05/21 10:00:09;;;;;;;14.38;2.60;;;;;;;17.32;40.99;100079.41;5051077;28;20049;-65
2021/05/21 10:02:36;;;;;;;9.45;2.17;;;;;;;17.38;39.76;100083.47;5051364;28;20048;-66
2021/05/21 10:05:05;;;;;;;18.50;4.03;;;;;;;17.43;38.70;100083.19;5047520;28;20049;-64
2021/05/21 10:07:32;;;;;;;12.75;2.30;;;;;;;17.40;39.63;100085.09;5062749;28;20041;-66
2021/05/21 10:09:58;;;;;;;11.27;2.80;;;;;;;17.62;40.18;100083.81;5060256;28;20045;-65
2021/05/21 10:12:25;;;;;;;10.60;2.25;;;;;;;17.66;38.34;100080.06;5062455;28;20052;-66
2021/05/21 10:14:51;;;;;;;13.20;2.60;;;;;;;17.74;38.02;100079.63;5061407;28;20044;-65
2021/05/21 10:17:18;;;;;;;17.48;2.28;;;;;;;17.70;38.37;100083.34;5038748;28;20050;-66
2021/05/21 10:19:46;;;;;;;9.55;1.83;;;;;;;17.63;38.48;100088.13;5035444;28;20053;-65
2021/05/21 10:22:16;;;;;;;11.88;2.10;;;;;;;17.60;38.73;100077.81;5045514;28;20065;-65
2021/05/21 10:24:44;;;;;;;12.35;3.20;;;;;;;17.70;37.64;100089.47;5047540;28;20045;-67
2021/05/21 10:27:17;;;;;;;13.43;2.17;;;;;;;17.65;37.20;100098.56;5049988;28;20064;-66
2021/05/21 10:29:48;;;;;;;10.90;2.00;;;;;;;17.66;38.10;100093.22;5050801;28;20171;-65
2021/05/21 10:32:16;;;;;;;9.07;2.30;;;;;;;17.90;37.04;100081.31;5051734;28;20053;-65
2021/05/21 10:34:43;;;;;;;11.60;2.05;;;;;;;18.09;37.74;100073.19;5046206;28;20049;-62
2021/05/21 10:37:21;;;;;;;11.98;2.58;;;;;;;18.28;37.13;100063.22;5048457;28;20053;-66
2021/05/21 10:40:09;;;;;;;12.93;2.42;;;;;;;18.31;37.60;100068.28;5049204;28;20041;-65
2021/05/21 10:42:37;;;;;;;13.07;2.08;;;;;;;18.18;37.64;100078.72;5060526;28;20177;-67
2021/05/21 10:45:15;;;;;;;8.57;1.95;;;;;;;18.03;37.26;100074.41;5051119;28;20056;-66
2021/05/21 10:47:44;;;;;;;11.77;2.05;;;;;;;18.06;38.72;100074.22;5042561;28;20049;-65
2021/05/21 10:50:20;;;;;;;7.28;1.90;;;;;;;18.10;37.82;100078.34;5050702;28;20137;-63
2021/05/21 10:52:54;;;;;;;13.13;2.10;;;;;;;18.25;37.15;100066.03;5049102;28;20037;-64
2021/05/21 10:55:38;;;;;;;11.35;2.47;;;;;;;18.38;37.41;100066.09;5055215;28;20423;-62
2021/05/21 10:58:04;;;;;;;9.73;1.73;;;;;;;18.46;38.97;100069.13;5044452;28;20228;-67
2021/05/21 11:00:31;;;;;;;15.02;2.05;;;;;;;18.49;37.58;100063.63;5050395;28;20398;-63
2021/05/21 11:02:57;;;;;;;6.68;2.13;;;;;;;18.42;37.34;100043.91;5053308;28;20093;-65
2021/05/21 11:05:27;;;;;;;8.73;2.03;;;;;;;18.06;36.17;100050.53;5046150;28;20045;-64
2021/05/21 11:07:55;;;;;;;11.57;2.35;;;;;;;17.71;37.97;100059.59;5051169;28;20048;-63
2021/05/21 11:10:41;;;;;;;10.52;2.53;;;;;;;17.84;39.17;100064.09;5055367;28;20399;-65
2021/05/21 11:13:12;;;;;;;11.23;2.05;;;;;;;18.17;38.86;100047.22;5056483;28;20514;-62
2021/05/21 11:15:41;;;;;;;12.70;2.80;;;;;;;18.38;37.30;100046.81;5050607;28;20051;-65
2021/05/21 11:18:25;;;;;;;15.02;2.58;;;;;;;18.48;37.69;100047.94;5049268;28;20068;-65
2021/05/21 11:20:54;;;;;;;12.80;2.20;;;;;;;18.60;35.99;100036.63;5039985;28;20135;-66
2021/05/21 11:23:22;;;;;;;10.38;2.28;;;;;;;18.73;35.99;100039.31;5045305;28;20532;-65